Terminal Aerodrome Forecast
Issued by NWS

Home | Current Version | Previous Version | Graphics & Text | Print | Product List | Glossary Off
Versions: 1 2 3 4 5 6 7 8 9 10 11 12 13 14 15 16 17 18 19 20 21 22

000
FTUS43 KGRB 180907 AAB
TAFMTW
TAF AMD
KMTW 180907Z 1809/1906 27005KT 4SM BR OVC007
     FM181500 25007KT P6SM BKN008
     FM181900 23010KT P6SM BKN010
     FM182100 23010KT P6SM BKN040
     FM190400 23012G23KT P6SM BKN100=

USA.gov is the U.S. government's official web portal to all federal, state and local government web resources and services.